createdAt,value
2023-01-10T00:02:58.004Z,6.67
2023-01-10T00:08:05.252Z,6.74
2023-01-10T00:13:24.589Z,6.61
2023-01-10T00:18:28.225Z,6.58
2023-01-10T00:23:31.845Z,6.72
2023-01-10T00:28:35.137Z,6.79
2023-01-10T00:33:39.447Z,6.79
2023-01-10T00:38:51.037Z,6.67
2023-01-10T00:43:58.647Z,6.31
2023-01-10T00:49:02.299Z,6.17
2023-01-10T00:54:06.023Z,6.31
2023-01-10T00:59:09.758Z,6.39
2023-01-10T01:04:13.403Z,6.13
2023-01-10T01:09:16.588Z,6.19
2023-01-10T01:14:20.093Z,5.87
2023-01-10T01:19:23.154Z,5.93
2023-01-10T01:24:27.047Z,5.85
2023-01-10T01:29:42.355Z,5.79
2023-01-10T01:34:46.504Z,5.81
2023-01-10T01:39:49.643Z,5.87
2023-01-10T01:45:14.251Z,5.73
2023-01-10T01:50:23.090Z,5.78
2023-01-10T01:55:28.103Z,5.62
2023-01-10T02:00:35.665Z,5.53
2023-01-10T02:05:42.906Z,5.64
2023-01-10T02:10:53.917Z,5.73
2023-01-10T02:15:57.084Z,5.62
2023-01-10T02:21:36.676Z,5.62
2023-01-10T02:26:56.435Z,5.73
2023-01-10T02:32:40.694Z,5.68
2023-01-10T02:38:13.781Z,5.73
2023-01-10T02:43:21.955Z,5.53
2023-01-10T02:48:25.161Z,5.38
2023-01-10T02:53:49.984Z,5.34
2023-01-10T02:59:14.956Z,5.55
2023-01-10T03:04:46.175Z,5.41
2023-01-10T03:10:14.358Z,5.60
2023-01-10T03:15:21.288Z,5.42
2023-01-10T03:20:27.459Z,5.59
2023-01-10T03:25:35.964Z,5.46
2023-01-10T03:30:47.456Z,5.22
2023-01-10T03:36:11.597Z,5.16
2023-01-10T03:41:23.995Z,5.15
2023-01-10T03:46:36.442Z,4.90
2023-01-10T03:51:40.180Z,4.88
2023-01-10T03:56:50.112Z,5.00
2023-01-10T04:01:54.198Z,4.98
2023-01-10T04:06:57.749Z,5.02
2023-01-10T04:12:01.216Z,5.04
2023-01-10T04:17:04.374Z,5.03
2023-01-10T04:22:07.469Z,5.23
2023-01-10T04:27:10.807Z,5.19
2023-01-10T04:32:14.943Z,5.44
2023-01-10T04:37:18.191Z,5.21
2023-01-10T04:42:21.667Z,5.06
2023-01-10T04:47:24.706Z,4.99
2023-01-10T04:52:28.489Z,4.91
2023-01-10T04:57:31.521Z,4.89
2023-01-10T05:02:34.770Z,4.70
2023-01-10T05:07:38.443Z,4.47
2023-01-10T05:12:41.460Z,4.49
2023-01-10T05:17:44.394Z,4.76
2023-01-10T05:22:47.679Z,4.48
2023-01-10T05:27:51.977Z,4.45
2023-01-10T05:32:55.258Z,4.37
2023-01-10T05:37:58.292Z,4.26
2023-01-10T05:43:02.030Z,4.43
2023-01-10T05:48:05.101Z,4.45
2023-01-10T05:53:08.070Z,4.77
2023-01-10T05:58:11.902Z,4.96
2023-01-10T06:03:15.556Z,4.93
2023-01-10T06:08:18.703Z,4.72
2023-01-10T06:13:23.507Z,4.61
2023-01-10T06:18:27.311Z,3.90
2023-01-10T06:23:30.963Z,3.93
2023-01-10T06:28:34.106Z,3.74
2023-01-10T06:33:39.219Z,3.89
2023-01-10T06:38:43.155Z,4.06
2023-01-10T06:43:47.607Z,4.42
2023-01-10T06:48:51.218Z,4.60
2023-01-10T06:53:54.272Z,4.61
2023-01-10T06:58:57.404Z,4.21
2023-01-10T07:04:01.227Z,4.23
2023-01-10T07:09:06.540Z,3.84
2023-01-10T07:14:10.204Z,3.38
2023-01-10T07:19:17.828Z,3.47
2023-01-10T07:24:21.122Z,4.02
2023-01-10T07:29:25.143Z,4.22
2023-01-10T07:34:28.151Z,3.94
2023-01-10T07:39:31.407Z,3.70
2023-01-10T07:44:35.472Z,4.12
2023-01-10T07:49:39.306Z,3.74
2023-01-10T07:54:42.403Z,3.46
2023-01-10T07:59:46.530Z,3.21
2023-01-10T08:04:50.226Z,3.08
2023-01-10T08:09:53.446Z,3.09
2023-01-10T08:14:57.128Z,3.18
2023-01-10T08:20:00.398Z,3.26
2023-01-10T08:25:04.350Z,3.34
2023-01-10T08:30:09.362Z,3.54
2023-01-10T08:35:13.535Z,3.75
2023-01-10T08:40:17.620Z,3.93
2023-01-10T08:45:20.691Z,4.17
2023-01-10T08:50:27.297Z,5.78
2023-01-10T08:55:32.823Z,5.32
2023-01-10T09:00:36.688Z,4.43
2023-01-10T09:05:40.108Z,4.28
2023-01-10T09:10:43.222Z,4.20
2023-01-10T09:15:47.169Z,3.98
2023-01-10T09:20:51.834Z,3.84
2023-01-10T09:25:58.243Z,3.81
2023-01-10T09:31:04.581Z,4.11
2023-01-10T09:36:10.273Z,4.32
2023-01-10T09:41:42.986Z,4.18
2023-01-10T09:47:23.200Z,4.10
2023-01-10T09:52:33.995Z,4.46
2023-01-10T09:57:37.258Z,4.47
2023-01-10T10:02:45.814Z,4.47
2023-01-10T10:07:54.985Z,4.36
2023-01-10T10:13:26.979Z,5.32
2023-01-10T10:19:19.880Z,7.50
2023-01-10T10:24:40.993Z,6.19
2023-01-10T10:30:02.789Z,5.82
2023-01-10T10:35:17.342Z,8.88
2023-01-10T10:40:26.175Z,7.93
2023-01-10T10:45:40.929Z,6.50
2023-01-10T10:51:02.556Z,5.82
2023-01-10T10:56:13.782Z,5.17
2023-01-10T11:01:19.146Z,5.43
2023-01-10T11:06:25.927Z,6.52
2023-01-10T11:11:44.080Z,7.10
2023-01-10T11:16:47.893Z,7.56
2023-01-10T11:22:04.327Z,7.57
2023-01-10T11:27:19.610Z,7.71
2023-01-10T11:32:50.272Z,9.01
2023-01-10T11:38:22.268Z,9.61
2023-01-10T11:43:31.861Z,9.00
2023-01-10T11:49:06.774Z,8.58
2023-01-10T11:54:26.982Z,8.94
2023-01-10T11:59:30.816Z,9.22
2023-01-10T12:04:42.824Z,9.81
2023-01-10T12:09:59.082Z,10.20
2023-01-10T12:15:27.332Z,10.79
2023-01-10T12:20:33.230Z,10.96
2023-01-10T12:25:39.147Z,11.11
2023-01-10T12:30:44.802Z,11.28
2023-01-10T12:36:00.017Z,11.41
2023-01-10T12:41:06.209Z,11.78
2023-01-10T12:46:31.702Z,12.02
2023-01-10T12:51:45.009Z,13.18
2023-01-10T12:56:49.591Z,14.17
2023-01-10T13:02:02.489Z,14.83
2023-01-10T13:07:06.373Z,14.65
2023-01-10T13:12:12.274Z,14.15
2023-01-10T13:17:33.765Z,14.44
2023-01-10T13:22:38.161Z,14.34
2023-01-10T13:27:41.977Z,14.88
2023-01-10T13:33:00.464Z,15.27
2023-01-10T13:38:03.843Z,14.99
2023-01-10T13:43:45.712Z,15.10
2023-01-10T13:49:00.338Z,14.97
2023-01-10T13:54:28.021Z,13.07
2023-01-10T13:59:49.462Z,11.49
2023-01-10T14:04:56.249Z,9.93
2023-01-10T14:10:18.396Z,8.01
2023-01-10T14:15:38.394Z,8.27
2023-01-10T14:20:42.015Z,9.90
2023-01-10T14:25:46.759Z,10.25
2023-01-10T14:31:04.372Z,10.14
2023-01-10T14:36:15.514Z,10.05
2023-01-10T14:41:30.123Z,8.77
2023-01-10T14:46:45.391Z,7.92
2023-01-10T14:51:50.922Z,7.95
2023-01-10T14:56:54.838Z,7.77
2023-01-10T15:02:01.010Z,7.77
2023-01-10T15:07:17.001Z,7.90
2023-01-10T15:12:21.899Z,7.74
2023-01-10T15:17:25.805Z,8.44
2023-01-10T15:22:31.694Z,7.91
2023-01-10T15:27:37.138Z,8.17
2023-01-10T15:32:40.891Z,8.12
2023-01-10T15:37:52.836Z,8.38
2023-01-10T15:43:25.999Z,8.74
2023-01-10T15:48:29.536Z,8.29
2023-01-10T15:53:58.220Z,8.36
2023-01-10T15:59:03.514Z,7.81
2023-01-10T16:04:15.326Z,7.30
2023-01-10T16:09:22.859Z,7.26
2023-01-10T16:14:26.631Z,8.01
2023-01-10T16:19:30.215Z,7.25
2023-01-10T16:24:36.551Z,5.96
2023-01-10T16:29:40.849Z,5.80
2023-01-10T16:34:44.419Z,5.44
2023-01-10T16:39:47.916Z,5.18
2023-01-10T16:51:58.179Z,4.36
2023-01-10T16:57:01.187Z,4.57
2023-01-10T17:02:16.574Z,4.19
2023-01-10T17:07:23.053Z,4.36
2023-01-10T17:12:35.123Z,4.39
2023-01-10T17:17:38.260Z,3.93
2023-01-10T17:22:42.907Z,3.84
2023-01-10T17:27:46.135Z,3.70
2023-01-10T17:32:49.721Z,4.00
2023-01-10T17:37:52.775Z,4.77
2023-01-10T17:42:56.626Z,5.07
2023-01-10T17:47:59.674Z,5.07
2023-01-10T17:53:03.268Z,5.03
2023-01-10T17:58:06.601Z,5.50
2023-01-10T18:03:10.876Z,5.49
2023-01-10T18:08:14.410Z,5.85
2023-01-10T18:13:23.357Z,5.72
2023-01-10T18:18:28.362Z,5.81
2023-01-10T18:23:33.050Z,5.68
2023-01-10T18:28:42.594Z,5.35
2023-01-10T18:33:48.013Z,5.65
2023-01-10T18:38:52.208Z,5.37
2023-01-10T18:43:55.707Z,5.25
2023-01-10T18:48:58.853Z,5.18
2023-01-10T18:54:03.088Z,5.15
2023-01-10T18:59:06.665Z,4.98
2023-01-10T19:04:11.605Z,4.32
2023-01-10T19:09:15.237Z,4.52
2023-01-10T19:14:20.091Z,4.00
2023-01-10T19:19:24.113Z,3.62
2023-01-10T19:24:30.226Z,3.39
2023-01-10T19:29:35.440Z,3.18
2023-01-10T19:34:38.636Z,3.41
2023-01-10T19:39:42.474Z,3.67
2023-01-10T19:44:46.776Z,3.25
2023-01-10T19:49:51.418Z,3.41
2023-01-10T19:54:55.464Z,3.08
2023-01-10T19:59:58.833Z,2.73
2023-01-10T20:05:03.103Z,3.28
2023-01-10T20:10:06.559Z,3.53
2023-01-10T20:15:10.558Z,2.90
2023-01-10T20:20:14.720Z,2.75
2023-01-10T20:25:17.969Z,2.57
2023-01-10T20:30:21.879Z,2.25
2023-01-10T20:35:26.229Z,2.06
2023-01-10T20:40:30.219Z,1.82
2023-01-10T20:45:34.866Z,2.21
2023-01-10T20:50:42.715Z,2.59
2023-01-10T20:55:56.298Z,2.81
2023-01-10T21:01:04.450Z,2.26
2023-01-10T21:06:08.306Z,2.02
2023-01-10T21:11:14.147Z,1.94
2023-01-10T21:16:20.389Z,1.76
2023-01-10T21:21:23.546Z,1.63
2023-01-10T21:26:26.582Z,1.73
2023-01-10T21:31:29.905Z,1.59
2023-01-10T21:36:33.363Z,1.52
2023-01-10T21:41:55.906Z,1.51
2023-01-10T21:46:59.749Z,1.55
2023-01-10T21:52:03.481Z,1.48
2023-01-10T21:57:06.982Z,1.59
2023-01-10T22:02:15.438Z,1.22
2023-01-10T22:07:21.712Z,1.07
2023-01-10T22:12:26.226Z,1.04
2023-01-10T22:17:29.267Z,0.79
2023-01-10T22:22:33.524Z,0.80
2023-01-10T22:27:37.141Z,0.79
2023-01-10T22:32:40.456Z,0.63
2023-01-10T22:37:43.910Z,0.67
2023-01-10T22:42:52.450Z,0.56
2023-01-10T22:47:56.367Z,0.56
2023-01-10T22:52:59.899Z,0.92
2023-01-10T22:58:03.003Z,1.01
2023-01-10T23:03:06.985Z,0.75
2023-01-10T23:08:10.525Z,0.66
2023-01-10T23:13:15.788Z,0.66
2023-01-10T23:18:19.045Z,0.79
2023-01-10T23:23:23.149Z,0.90
2023-01-10T23:28:26.151Z,0.93
2023-01-10T23:33:30.931Z,0.72
2023-01-10T23:38:34.809Z,0.61
2023-01-10T23:43:38.359Z,0.71
2023-01-10T23:48:43.339Z,0.64
2023-01-10T23:53:46.821Z,0.60
2023-01-10T23:58:52.949Z,0.44
